| Date | Time | Temp. (oF) | Dew Point (oF) | Rel. Hum. (%) | Press. (in.) | Wind Dir. | Wind Speed (mph) | Hourly Rainfall (in.) |
|
|---|---|---|---|---|---|---|---|---|---|
| 1 | 11/22 | 00:00 | 48 | 42 | 82 | 29.82 | SSW | 5 | 0.00 |
| 2 | 11/21 | 23:00 | 47 | 40 | 79 | 29.83 | SSW | 2 | 0.00 |
| 3 | 11/21 | 22:00 | 46 | 39 | 77 | 29.86 | SSE | 5 | 0.00 |
| 4 | 11/21 | 21:00 | 46 | 38 | 74 | 29.90 | S | 4 | 0.00 |
| 5 | 11/21 | 20:00 | 45 | 35 | 68 | 29.92 | SE | 0 | 0.00 |
| 6 | 11/21 | 19:00 | 44 | 33 | 66 | 29.92 | E | 0 | 0.00 |
| 7 | 11/21 | 18:00 | 44 | 32 | 63 | 29.94 | ENE | 2 | 0.00 |
| 8 | 11/21 | 17:00 | 46 | 32 | 58 | 29.95 | ESE | 5 | 0.00 |
| 9 | 11/21 | 16:00 | 48 | 30 | 51 | 29.98 | SE | 6 | 0.00 |
| 10 | 11/21 | 15:00 | 49 | 28 | 45 | 29.99 | ESE | 4 | 0.00 |
| 11 | 11/21 | 14:00 | 50 | 24 | 37 | 30.03 | SSE | 7 | 0.00 |
| 12 | 11/21 | 13:00 | 51 | 27 | 41 | 30.07 | SE | 10 | 0.00 |
| 13 | 11/21 | 12:00 | 49 | 27 | 43 | 30.12 | SSE | 2 | 0.00 |
| 14 | 11/21 | 11:00 | 48 | 28 | 46 | 30.17 | ESE | 7 | 0.00 |
| 15 | 11/21 | 10:00 | 44 | 28 | 55 | 30.20 | ESE | 4 | 0.00 |
| 16 | 11/21 | 09:00 | 39 | 29 | 69 | 30.21 | SSE | 3 | 0.00 |
| 17 | 11/21 | 08:00 | 31 | 27 | 88 | 30.21 | SSW | 0 | 0.00 |
| 18 | 11/21 | 07:00 | 28 | 24 | 88 | 30.20 | SSW | 0 | 0.00 |
| 19 | 11/21 | 06:00 | 29 | 25 | 85 | 30.20 | SSW | 0 | 0.00 |
| 20 | 11/21 | 05:00 | 30 | 25 | 83 | 30.19 | SW | 0 | 0.00 |
| 21 | 11/21 | 04:00 | 31 | 26 | 83 | 30.19 | E | 0 | 0.00 |
| 22 | 11/21 | 03:00 | 31 | 26 | 84 | 30.21 | N | 0 | 0.00 |
| 23 | 11/21 | 02:00 | 30 | 25 | 83 | 30.21 | NNE | 0 | 0.00 |
| 24 | 11/21 | 01:00 | 30 | 24 | 81 | 30.21 | S | 0 | 0.00 |